sensor_id;sensor_type;location;lat;lon;timestamp;temperature;humidity
22742;DHT22;11538;48.884;8.696;2024-01-15T00:01:00;-0.10;99.90
22742;DHT22;11538;48.884;8.696;2024-01-15T00:03:27;-0.10;99.90
22742;DHT22;11538;48.884;8.696;2024-01-15T00:05:54;-0.10;99.90
22742;DHT22;11538;48.884;8.696;2024-01-15T00:08:21;-0.10;99.90
22742;DHT22;11538;48.884;8.696;2024-01-15T00:10:48;-0.10;99.90
22742;DHT22;11538;48.884;8.696;2024-01-15T00:13:15;-0.10;99.90
22742;DHT22;11538;48.884;8.696;2024-01-15T00:15:42;0.00;99.90
22742;DHT22;11538;48.884;8.696;2024-01-15T00:18:09;0.00;99.90
22742;DHT22;11538;48.884;8.696;2024-01-15T00:20:36;0.00;99.90
22742;DHT22;11538;48.884;8.696;2024-01-15T00:23:03;0.00;99.90
22742;DHT22;11538;48.884;8.696;2024-01-15T00:25:30;0.00;99.90
22742;DHT22;11538;48.884;8.696;2024-01-15T00:27:57;0.00;99.90
22742;DHT22;11538;48.884;8.696;2024-01-15T00:30:24;0.00;99.90
22742;DHT22;11538;48.884;8.696;2024-01-15T00:32:51;0.00;99.90
22742;DHT22;11538;48.884;8.696;2024-01-15T00:35:18;0.10;99.90
22742;DHT22;11538;48.884;8.696;2024-01-15T00:37:45;0.10;99.90
22742;DHT22;11538;48.884;8.696;2024-01-15T00:40:12;0.10;99.90
22742;DHT22;11538;48.884;8.696;2024-01-15T00:42:39;0.10;99.90
22742;DHT22;11538;48.884;8.696;2024-01-15T00:45:06;0.10;99.90
22742;DHT22;11538;48.884;8.696;2024-01-15T00:47:34;0.10;99.90
22742;DHT22;11538;48.884;8.696;2024-01-15T00:50:02;0.10;99.90
22742;DHT22;11538;48.884;8.696;2024-01-15T00:52:30;0.10;99.90
22742;DHT22;11538;48.884;8.696;2024-01-15T00:54:56;0.10;99.90
22742;DHT22;11538;48.884;8.696;2024-01-15T00:57:24;0.10;99.90
22742;DHT22;11538;48.884;8.696;2024-01-15T00:59:50;0.10;99.90
22742;DHT22;11538;48.884;8.696;2024-01-15T01:02:17;0.20;99.90
22742;DHT22;11538;48.884;8.696;2024-01-15T01:04:44;0.20;99.90
22742;DHT22;11538;48.884;8.696;2024-01-15T01:07:11;0.20;99.90
22742;DHT22;11538;48.884;8.696;2024-01-15T01:09:38;0.20;99.90
22742;DHT22;11538;48.884;8.696;2024-01-15T01:12:05;0.20;99.90
22742;DHT22;11538;48.884;8.696;2024-01-15T01:14:32;0.20;99.90
22742;DHT22;11538;48.884;8.696;2024-01-15T01:16:59;0.20;99.90
22742;DHT22;11538;48.884;8.696;2024-01-15T01:19:26;0.20;99.90
22742;DHT22;11538;48.884;8.696;2024-01-15T01:21:55;0.20;99.90
22742;DHT22;11538;48.884;8.696;2024-01-15T01:24:21;0.30;99.90
22742;DHT22;11538;48.884;8.696;2024-01-15T01:26:48;0.30;99.90
22742;DHT22;11538;48.884;8.696;2024-01-15T01:29:15;0.30;99.90
22742;DHT22;11538;48.884;8.696;2024-01-15T01:31:43;0.30;99.90
22742;DHT22;11538;48.884;8.696;2024-01-15T01:34:14;0.30;99.90
22742;DHT22;11538;48.884;8.696;2024-01-15T01:36:43;0.30;99.90
22742;DHT22;11538;48.884;8.696;2024-01-15T01:39:10;0.30;99.90
22742;DHT22;11538;48.884;8.696;2024-01-15T01:41:38;0.30;99.90
22742;DHT22;11538;48.884;8.696;2024-01-15T01:44:06;0.30;99.90
22742;DHT22;11538;48.884;8.696;2024-01-15T01:46:34;0.30;99.90
22742;DHT22;11538;48.884;8.696;2024-01-15T01:49:08;0.30;99.90
22742;DHT22;11538;48.884;8.696;2024-01-15T01:51:36;0.30;99.90
22742;DHT22;11538;48.884;8.696;2024-01-15T01:54:07;0.30;99.90
22742;DHT22;11538;48.884;8.696;2024-01-15T01:56:36;0.30;99.90
22742;DHT22;11538;48.884;8.696;2024-01-15T01:59:04;0.30;99.90
22742;DHT22;11538;48.884;8.696;2024-01-15T02:01:32;0.30;99.90
22742;DHT22;11538;48.884;8.696;2024-01-15T02:03:59;0.30;99.90
22742;DHT22;11538;48.884;8.696;2024-01-15T02:06:29;0.30;99.90
22742;DHT22;11538;48.884;8.696;2024-01-15T02:08:56;0.30;99.90
22742;DHT22;11538;48.884;8.696;2024-01-15T02:11:24;0.30;99.90
22742;DHT22;11538;48.884;8.696;2024-01-15T02:13:51;0.30;99.90
22742;DHT22;11538;48.884;8.696;2024-01-15T02:16:18;0.30;99.90
22742;DHT22;11538;48.884;8.696;2024-01-15T02:18:47;0.30;99.90
22742;DHT22;11538;48.884;8.696;2024-01-15T02:21:14;0.30;99.90
22742;DHT22;11538;48.884;8.696;2024-01-15T02:23:41;0.30;99.90
22742;DHT22;11538;48.884;8.696;2024-01-15T02:26:08;0.30;99.90
22742;DHT22;11538;48.884;8.696;2024-01-15T02:28:35;0.30;99.90
22742;DHT22;11538;48.884;8.696;2024-01-15T02:31:03;0.40;99.90
22742;DHT22;11538;48.884;8.696;2024-01-15T02:33:33;0.30;99.90
22742;DHT22;11538;48.884;8.696;2024-01-15T02:36:00;0.30;99.90
22742;DHT22;11538;48.884;8.696;2024-01-15T02:38:26;0.30;99.90
22742;DHT22;11538;48.884;8.696;2024-01-15T02:40:53;0.40;99.90
22742;DHT22;11538;48.884;8.696;2024-01-15T02:43:20;0.30;99.90
22742;DHT22;11538;48.884;8.696;2024-01-15T02:45:47;0.30;99.90
22742;DHT22;11538;48.884;8.696;2024-01-15T02:48:14;0.30;99.90
22742;DHT22;11538;48.884;8.696;2024-01-15T02:50:42;0.30;99.90
22742;DHT22;11538;48.884;8.696;2024-01-15T02:53:09;0.30;99.90
22742;DHT22;11538;48.884;8.696;2024-01-15T02:55:36;0.40;99.90
22742;DHT22;11538;48.884;8.696;2024-01-15T02:58:03;0.40;99.90
22742;DHT22;11538;48.884;8.696;2024-01-15T03:00:30;0.40;99.90
22742;DHT22;11538;48.884;8.696;2024-01-15T03:02:57;0.40;99.90
22742;DHT22;11538;48.884;8.696;2024-01-15T03:05:24;0.40;99.90
22742;DHT22;11538;48.884;8.696;2024-01-15T03:07:51;0.40;99.90
22742;DHT22;11538;48.884;8.696;2024-01-15T03:10:18;0.40;99.90
22742;DHT22;11538;48.884;8.696;2024-01-15T03:12:45;0.40;99.90
22742;DHT22;11538;48.884;8.696;2024-01-15T03:15:12;0.40;99.90
22742;DHT22;11538;48.884;8.696;2024-01-15T03:17:41;0.40;99.90
22742;DHT22;11538;48.884;8.696;2024-01-15T03:20:10;0.40;99.90
22742;DHT22;11538;48.884;8.696;2024-01-15T03:22:37;0.40;99.90
22742;DHT22;11538;48.884;8.696;2024-01-15T03:25:05;0.40;99.90
22742;DHT22;11538;48.884;8.696;2024-01-15T03:27:33;0.40;99.90
22742;DHT22;11538;48.884;8.696;2024-01-15T03:30:00;0.40;99.90
22742;DHT22;11538;48.884;8.696;2024-01-15T03:32:27;0.50;99.90
22742;DHT22;11538;48.884;8.696;2024-01-15T03:34:54;0.50;99.90
22742;DHT22;11538;48.884;8.696;2024-01-15T03:37:21;0.50;99.90
22742;DHT22;11538;48.884;8.696;2024-01-15T03:39:50;0.50;99.90
22742;DHT22;11538;48.884;8.696;2024-01-15T03:42:17;0.50;99.90
22742;DHT22;11538;48.884;8.696;2024-01-15T03:44:44;0.50;99.90
22742;DHT22;11538;48.884;8.696;2024-01-15T03:47:11;0.50;99.90
22742;DHT22;11538;48.884;8.696;2024-01-15T03:49:38;0.50;99.90
22742;DHT22;11538;48.884;8.696;2024-01-15T03:52:05;0.60;99.90
22742;DHT22;11538;48.884;8.696;2024-01-15T03:54:32;0.60;99.90
22742;DHT22;11538;48.884;8.696;2024-01-15T03:56:59;0.60;99.90
22742;DHT22;11538;48.884;8.696;2024-01-15T03:59:26;0.60;99.90
22742;DHT22;11538;48.884;8.696;2024-01-15T04:01:53;0.60;99.90
22742;DHT22;11538;48.884;8.696;2024-01-15T04:04:20;0.60;99.90
22742;DHT22;11538;48.884;8.696;2024-01-15T04:06:47;0.60;99.90
22742;DHT22;11538;48.884;8.696;2024-01-15T04:09:14;0.70;99.90
22742;DHT22;11538;48.884;8.696;2024-01-15T04:11:42;0.70;99.90
22742;DHT22;11538;48.884;8.696;2024-01-15T04:14:09;0.70;99.90
22742;DHT22;11538;48.884;8.696;2024-01-15T04:16:37;0.70;99.90
22742;DHT22;11538;48.884;8.696;2024-01-15T04:19:04;0.70;99.90
22742;DHT22;11538;48.884;8.696;2024-01-15T04:21:31;0.70;99.90
22742;DHT22;11538;48.884;8.696;2024-01-15T04:23:59;0.70;99.90
22742;DHT22;11538;48.884;8.696;2024-01-15T04:26:25;0.70;99.90
22742;DHT22;11538;48.884;8.696;2024-01-15T04:28:52;0.80;99.90
22742;DHT22;11538;48.884;8.696;2024-01-15T04:31:23;0.80;99.90
22742;DHT22;11538;48.884;8.696;2024-01-15T04:33:52;0.80;99.90
22742;DHT22;11538;48.884;8.696;2024-01-15T04:36:19;0.80;99.90
22742;DHT22;11538;48.884;8.696;2024-01-15T04:38:46;0.80;99.90
22742;DHT22;11538;48.884;8.696;2024-01-15T04:41:14;0.80;99.90
22742;DHT22;11538;48.884;8.696;2024-01-15T04:43:42;0.80;99.90
22742;DHT22;11538;48.884;8.696;2024-01-15T04:46:09;0.80;99.90
22742;DHT22;11538;48.884;8.696;2024-01-15T04:48:36;0.80;99.90
22742;DHT22;11538;48.884;8.696;2024-01-15T04:51:05;0.90;99.90
22742;DHT22;11538;48.884;8.696;2024-01-15T04:53:34;0.90;99.90
22742;DHT22;11538;48.884;8.696;2024-01-15T04:56:01;0.90;99.90
22742;DHT22;11538;48.884;8.696;2024-01-15T04:58:28;0.90;99.90
22742;DHT22;11538;48.884;8.696;2024-01-15T05:00:56;0.90;99.90
22742;DHT22;11538;48.884;8.696;2024-01-15T05:03:23;0.90;99.90
22742;DHT22;11538;48.884;8.696;2024-01-15T05:05:50;0.90;99.90
22742;DHT22;11538;48.884;8.696;2024-01-15T05:08:17;0.90;99.90
22742;DHT22;11538;48.884;8.696;2024-01-15T05:10:44;0.90;99.90
22742;DHT22;11538;48.884;8.696;2024-01-15T05:13:11;0.90;99.90
22742;DHT22;11538;48.884;8.696;2024-01-15T05:15:38;1.00;99.90
22742;DHT22;11538;48.884;8.696;2024-01-15T05:18:05;1.00;99.90
22742;DHT22;11538;48.884;8.696;2024-01-15T05:20:33;1.00;99.90
22742;DHT22;11538;48.884;8.696;2024-01-15T05:23:01;1.00;99.90
22742;DHT22;11538;48.884;8.696;2024-01-15T05:25:27;1.00;99.90
22742;DHT22;11538;48.884;8.696;2024-01-15T05:27:54;1.00;99.90
22742;DHT22;11538;48.884;8.696;2024-01-15T05:30:21;1.10;99.90
22742;DHT22;11538;48.884;8.696;2024-01-15T05:32:48;1.10;99.90
22742;DHT22;11538;48.884;8.696;2024-01-15T05:35:15;1.10;99.90
22742;DHT22;11538;48.884;8.696;2024-01-15T05:37:44;1.10;99.90
22742;DHT22;11538;48.884;8.696;2024-01-15T05:40:13;1.10;99.90
22742;DHT22;11538;48.884;8.696;2024-01-15T05:42:41;1.10;99.90
22742;DHT22;11538;48.884;8.696;2024-01-15T05:45:08;1.00;99.90
22742;DHT22;11538;48.884;8.696;2024-01-15T05:47:36;1.10;99.90
22742;DHT22;11538;48.884;8.696;2024-01-15T05:50:03;1.10;99.90
22742;DHT22;11538;48.884;8.696;2024-01-15T05:52:30;1.10;99.90
22742;DHT22;11538;48.884;8.696;2024-01-15T05:54:57;1.10;99.90
22742;DHT22;11538;48.884;8.696;2024-01-15T05:57:24;1.10;99.90
22742;DHT22;11538;48.884;8.696;2024-01-15T05:59:51;1.00;99.90
22742;DHT22;11538;48.884;8.696;2024-01-15T06:02:18;1.00;99.90
22742;DHT22;11538;48.884;8.696;2024-01-15T06:04:45;1.00;99.90
22742;DHT22;11538;48.884;8.696;2024-01-15T06:07:12;1.00;99.90
22742;DHT22;11538;48.884;8.696;2024-01-15T06:09:39;1.00;99.90
22742;DHT22;11538;48.884;8.696;2024-01-15T06:12:07;1.10;99.90
22742;DHT22;11538;48.884;8.696;2024-01-15T06:14:35;1.00;99.90
22742;DHT22;11538;48.884;8.696;2024-01-15T06:17:01;1.10;99.90
22742;DHT22;11538;48.884;8.696;2024-01-15T06:19:29;1.10;99.90
22742;DHT22;11538;48.884;8.696;2024-01-15T06:21:56;1.10;99.90
22742;DHT22;11538;48.884;8.696;2024-01-15T06:24:24;1.10;99.90
22742;DHT22;11538;48.884;8.696;2024-01-15T06:26:51;1.10;99.90
22742;DHT22;11538;48.884;8.696;2024-01-15T06:29:18;1.20;99.90
22742;DHT22;11538;48.884;8.696;2024-01-15T06:31:45;1.20;99.90
22742;DHT22;11538;48.884;8.696;2024-01-15T06:34:12;1.20;99.90
22742;DHT22;11538;48.884;8.696;2024-01-15T06:36:39;1.20;99.90
22742;DHT22;11538;48.884;8.696;2024-01-15T06:39:06;1.20;99.90
22742;DHT22;11538;48.884;8.696;2024-01-15T06:41:33;1.30;99.90
22742;DHT22;11538;48.884;8.696;2024-01-15T06:44:00;1.30;99.90
22742;DHT22;11538;48.884;8.696;2024-01-15T06:46:27;1.30;99.90
22742;DHT22;11538;48.884;8.696;2024-01-15T06:48:54;1.30;99.90
22742;DHT22;11538;48.884;8.696;2024-01-15T06:51:21;1.30;99.90
22742;DHT22;11538;48.884;8.696;2024-01-15T06:53:48;1.30;99.90
22742;DHT22;11538;48.884;8.696;2024-01-15T06:56:15;1.30;99.90
22742;DHT22;11538;48.884;8.696;2024-01-15T06:58:42;1.40;99.90
22742;DHT22;11538;48.884;8.696;2024-01-15T07:01:09;1.40;99.90
22742;DHT22;11538;48.884;8.696;2024-01-15T07:03:38;1.40;99.90
22742;DHT22;11538;48.884;8.696;2024-01-15T07:06:05;1.40;99.90
22742;DHT22;11538;48.884;8.696;2024-01-15T07:08:33;1.40;99.90
22742;DHT22;11538;48.884;8.696;2024-01-15T07:11:03;1.50;99.90
22742;DHT22;11538;48.884;8.696;2024-01-15T07:13:31;1.50;99.90
22742;DHT22;11538;48.884;8.696;2024-01-15T07:15:59;1.50;99.90
22742;DHT22;11538;48.884;8.696;2024-01-15T07:18:26;1.50;99.90
22742;DHT22;11538;48.884;8.696;2024-01-15T07:20:53;1.50;99.90
22742;DHT22;11538;48.884;8.696;2024-01-15T07:23:20;1.50;99.90
22742;DHT22;11538;48.884;8.696;2024-01-15T07:25:47;1.50;99.90
22742;DHT22;11538;48.884;8.696;2024-01-15T07:28:14;1.50;99.90
22742;DHT22;11538;48.884;8.696;2024-01-15T07:30:41;1.50;99.90
22742;DHT22;11538;48.884;8.696;2024-01-15T07:33:08;1.50;99.90
22742;DHT22;11538;48.884;8.696;2024-01-15T07:35:35;1.50;99.90
22742;DHT22;11538;48.884;8.696;2024-01-15T07:38:02;1.50;99.90
22742;DHT22;11538;48.884;8.696;2024-01-15T07:40:29;1.60;99.90
22742;DHT22;11538;48.884;8.696;2024-01-15T07:42:56;1.60;99.90
22742;DHT22;11538;48.884;8.696;2024-01-15T07:45:23;1.60;99.90
22742;DHT22;11538;48.884;8.696;2024-01-15T07:47:50;1.60;99.90
22742;DHT22;11538;48.884;8.696;2024-01-15T07:50:17;1.60;99.90
22742;DHT22;11538;48.884;8.696;2024-01-15T07:52:44;1.70;99.90
22742;DHT22;11538;48.884;8.696;2024-01-15T07:55:12;1.70;99.90
22742;DHT22;11538;48.884;8.696;2024-01-15T07:57:38;1.70;99.90
22742;DHT22;11538;48.884;8.696;2024-01-15T08:00:06;1.70;99.90
22742;DHT22;11538;48.884;8.696;2024-01-15T08:02:33;1.70;99.90
22742;DHT22;11538;48.884;8.696;2024-01-15T08:05:03;1.70;99.90
22742;DHT22;11538;48.884;8.696;2024-01-15T08:07:32;1.70;99.90
22742;DHT22;11538;48.884;8.696;2024-01-15T08:09:59;1.70;99.90
22742;DHT22;11538;48.884;8.696;2024-01-15T08:12:26;1.80;99.90
22742;DHT22;11538;48.884;8.696;2024-01-15T08:14:53;1.80;99.90
22742;DHT22;11538;48.884;8.696;2024-01-15T08:17:20;1.80;99.90
22742;DHT22;11538;48.884;8.696;2024-01-15T08:19:47;1.80;99.90
22742;DHT22;11538;48.884;8.696;2024-01-15T08:22:14;1.80;99.90
22742;DHT22;11538;48.884;8.696;2024-01-15T08:24:41;1.80;99.90
22742;DHT22;11538;48.884;8.696;2024-01-15T08:27:08;1.80;99.90
22742;DHT22;11538;48.884;8.696;2024-01-15T08:29:35;1.80;99.90
22742;DHT22;11538;48.884;8.696;2024-01-15T08:32:03;1.80;99.90
22742;DHT22;11538;48.884;8.696;2024-01-15T08:34:30;1.80;99.90
22742;DHT22;11538;48.884;8.696;2024-01-15T08:36:58;1.80;99.90
22742;DHT22;11538;48.884;8.696;2024-01-15T08:39:25;1.80;99.90
22742;DHT22;11538;48.884;8.696;2024-01-15T08:41:52;1.80;99.90
22742;DHT22;11538;48.884;8.696;2024-01-15T08:44:19;1.90;99.90
22742;DHT22;11538;48.884;8.696;2024-01-15T08:46:46;1.80;99.90
22742;DHT22;11538;48.884;8.696;2024-01-15T08:49:13;1.80;99.90
22742;DHT22;11538;48.884;8.696;2024-01-15T08:51:40;1.90;99.90
22742;DHT22;11538;48.884;8.696;2024-01-15T08:54:07;1.80;99.90
22742;DHT22;11538;48.884;8.696;2024-01-15T08:56:35;1.90;99.90
22742;DHT22;11538;48.884;8.696;2024-01-15T08:59:02;1.90;99.90
22742;DHT22;11538;48.884;8.696;2024-01-15T09:01:29;1.90;99.90
22742;DHT22;11538;48.884;8.696;2024-01-15T09:03:56;1.90;99.90
22742;DHT22;11538;48.884;8.696;2024-01-15T09:06:23;1.90;99.90
22742;DHT22;11538;48.884;8.696;2024-01-15T09:08:50;1.90;99.90
22742;DHT22;11538;48.884;8.696;2024-01-15T09:11:17;1.90;99.90
22742;DHT22;11538;48.884;8.696;2024-01-15T09:13:44;2.00;99.90
22742;DHT22;11538;48.884;8.696;2024-01-15T09:16:11;2.00;99.90
22742;DHT22;11538;48.884;8.696;2024-01-15T09:18:37;2.00;99.90
22742;DHT22;11538;48.884;8.696;2024-01-15T09:21:04;2.00;99.90
22742;DHT22;11538;48.884;8.696;2024-01-15T09:23:32;2.00;99.90
22742;DHT22;11538;48.884;8.696;2024-01-15T09:26:01;2.00;99.90
22742;DHT22;11538;48.884;8.696;2024-01-15T09:28:28;2.00;99.90
22742;DHT22;11538;48.884;8.696;2024-01-15T09:30:54;2.10;99.90
22742;DHT22;11538;48.884;8.696;2024-01-15T09:33:21;2.10;99.90
22742;DHT22;11538;48.884;8.696;2024-01-15T09:35:49;2.10;99.90
22742;DHT22;11538;48.884;8.696;2024-01-15T09:38:16;2.10;99.90
22742;DHT22;11538;48.884;8.696;2024-01-15T09:40:45;2.10;99.90
22742;DHT22;11538;48.884;8.696;2024-01-15T09:43:14;2.20;99.90
22742;DHT22;11538;48.884;8.696;2024-01-15T09:45:43;2.20;99.90
22742;DHT22;11538;48.884;8.696;2024-01-15T09:48:11;2.20;99.90
22742;DHT22;11538;48.884;8.696;2024-01-15T09:50:39;2.20;99.90
22742;DHT22;11538;48.884;8.696;2024-01-15T09:53:06;2.20;99.90
22742;DHT22;11538;48.884;8.696;2024-01-15T09:55:33;2.30;99.90
22742;DHT22;11538;48.884;8.696;2024-01-15T09:58:00;2.30;99.90
22742;DHT22;11538;48.884;8.696;2024-01-15T10:00:29;2.30;99.90
22742;DHT22;11538;48.884;8.696;2024-01-15T10:02:58;2.30;99.90
22742;DHT22;11538;48.884;8.696;2024-01-15T10:05:27;2.30;99.90
22742;DHT22;11538;48.884;8.696;2024-01-15T10:07:56;2.30;99.90
22742;DHT22;11538;48.884;8.696;2024-01-15T10:10:24;2.20;99.90
22742;DHT22;11538;48.884;8.696;2024-01-15T10:12:51;2.30;99.90
22742;DHT22;11538;48.884;8.696;2024-01-15T10:15:17;2.30;99.90
22742;DHT22;11538;48.884;8.696;2024-01-15T10:17:45;2.30;99.90
22742;DHT22;11538;48.884;8.696;2024-01-15T10:20:12;2.20;99.90
22742;DHT22;11538;48.884;8.696;2024-01-15T10:22:43;2.30;99.90
22742;DHT22;11538;48.884;8.696;2024-01-15T10:25:13;2.30;99.90
22742;DHT22;11538;48.884;8.696;2024-01-15T10:27:41;2.30;99.90
22742;DHT22;11538;48.884;8.696;2024-01-15T10:30:10;2.30;99.90
22742;DHT22;11538;48.884;8.696;2024-01-15T10:32:37;2.30;99.90
22742;DHT22;11538;48.884;8.696;2024-01-15T10:35:07;2.30;99.90
22742;DHT22;11538;48.884;8.696;2024-01-15T10:37:35;2.30;99.90
22742;DHT22;11538;48.884;8.696;2024-01-15T10:40:03;2.30;99.90
22742;DHT22;11538;48.884;8.696;2024-01-15T10:42:32;2.20;99.90
22742;DHT22;11538;48.884;8.696;2024-01-15T10:44:59;2.20;99.90
22742;DHT22;11538;48.884;8.696;2024-01-15T10:47:26;2.20;99.90
22742;DHT22;11538;48.884;8.696;2024-01-15T10:49:53;2.20;99.90
22742;DHT22;11538;48.884;8.696;2024-01-15T10:52:21;2.20;99.90
22742;DHT22;11538;48.884;8.696;2024-01-15T10:54:50;2.20;99.90
22742;DHT22;11538;48.884;8.696;2024-01-15T10:57:21;2.10;99.90
22742;DHT22;11538;48.884;8.696;2024-01-15T10:59:49;2.10;99.90
22742;DHT22;11538;48.884;8.696;2024-01-15T11:02:16;2.10;99.90
22742;DHT22;11538;48.884;8.696;2024-01-15T11:04:44;2.10;99.90
22742;DHT22;11538;48.884;8.696;2024-01-15T11:07:11;2.10;99.90
22742;DHT22;11538;48.884;8.696;2024-01-15T11:09:38;2.10;99.90
22742;DHT22;11538;48.884;8.696;2024-01-15T11:12:13;2.10;99.90
22742;DHT22;11538;48.884;8.696;2024-01-15T11:14:44;2.10;99.90
22742;DHT22;11538;48.884;8.696;2024-01-15T11:17:13;2.10;99.90
22742;DHT22;11538;48.884;8.696;2024-01-15T11:25:03;2.00;99.90
22742;DHT22;11538;48.884;8.696;2024-01-15T11:27:47;2.10;99.90
22742;DHT22;11538;48.884;8.696;2024-01-15T11:30:25;2.00;99.90
22742;DHT22;11538;48.884;8.696;2024-01-15T11:32:52;2.00;99.90
22742;DHT22;11538;48.884;8.696;2024-01-15T11:35:19;2.00;99.90
22742;DHT22;11538;48.884;8.696;2024-01-15T11:40:44;1.90;99.90
22742;DHT22;11538;48.884;8.696;2024-01-15T11:43:13;1.90;99.90
22742;DHT22;11538;48.884;8.696;2024-01-15T11:45:41;1.90;99.90
22742;DHT22;11538;48.884;8.696;2024-01-15T11:48:16;2.00;99.90
22742;DHT22;11538;48.884;8.696;2024-01-15T11:50:47;2.00;99.90
22742;DHT22;11538;48.884;8.696;2024-01-15T11:53:34;1.90;99.90
22742;DHT22;11538;48.884;8.696;2024-01-15T11:56:14;2.00;99.90
22742;DHT22;11538;48.884;8.696;2024-01-15T11:58:43;2.00;99.90
22742;DHT22;11538;48.884;8.696;2024-01-15T12:01:11;1.90;99.90
22742;DHT22;11538;48.884;8.696;2024-01-15T12:03:38;1.90;99.90
22742;DHT22;11538;48.884;8.696;2024-01-15T12:06:06;1.90;99.90
22742;DHT22;11538;48.884;8.696;2024-01-15T12:08:34;1.90;99.90
22742;DHT22;11538;48.884;8.696;2024-01-15T12:11:06;1.90;99.90
22742;DHT22;11538;48.884;8.696;2024-01-15T12:13:37;1.90;99.90
22742;DHT22;11538;48.884;8.696;2024-01-15T12:16:04;1.90;99.90
22742;DHT22;11538;48.884;8.696;2024-01-15T12:18:31;1.90;99.90
22742;DHT22;11538;48.884;8.696;2024-01-15T12:20:59;1.90;99.90
22742;DHT22;11538;48.884;8.696;2024-01-15T12:23:26;1.90;99.90
22742;DHT22;11538;48.884;8.696;2024-01-15T12:25:54;1.90;99.90
22742;DHT22;11538;48.884;8.696;2024-01-15T12:28:21;1.90;99.90
22742;DHT22;11538;48.884;8.696;2024-01-15T12:30:49;1.90;99.90
22742;DHT22;11538;48.884;8.696;2024-01-15T12:33:18;1.90;99.90
22742;DHT22;11538;48.884;8.696;2024-01-15T12:35:46;1.90;99.90
22742;DHT22;11538;48.884;8.696;2024-01-15T12:38:13;1.90;99.90
22742;DHT22;11538;48.884;8.696;2024-01-15T12:40:40;1.90;99.90
22742;DHT22;11538;48.884;8.696;2024-01-15T12:43:13;1.90;99.90
22742;DHT22;11538;48.884;8.696;2024-01-15T12:45:40;2.00;99.90
22742;DHT22;11538;48.884;8.696;2024-01-15T12:48:07;2.10;99.90
22742;DHT22;11538;48.884;8.696;2024-01-15T12:50:35;2.10;99.90
22742;DHT22;11538;48.884;8.696;2024-01-15T12:53:02;2.10;99.90
22742;DHT22;11538;48.884;8.696;2024-01-15T12:55:30;2.00;99.90
22742;DHT22;11538;48.884;8.696;2024-01-15T12:57:56;2.00;99.90
22742;DHT22;11538;48.884;8.696;2024-01-15T13:00:23;2.00;99.90
22742;DHT22;11538;48.884;8.696;2024-01-15T13:02:52;1.90;99.90
22742;DHT22;11538;48.884;8.696;2024-01-15T13:05:21;1.90;99.90
22742;DHT22;11538;48.884;8.696;2024-01-15T13:07:49;1.90;99.90
22742;DHT22;11538;48.884;8.696;2024-01-15T13:10:16;1.90;99.90
22742;DHT22;11538;48.884;8.696;2024-01-15T13:12:43;1.90;99.90
22742;DHT22;11538;48.884;8.696;2024-01-15T13:15:10;1.90;99.90
22742;DHT22;11538;48.884;8.696;2024-01-15T13:17:41;1.80;99.90
22742;DHT22;11538;48.884;8.696;2024-01-15T13:20:09;1.90;99.90
22742;DHT22;11538;48.884;8.696;2024-01-15T13:22:38;1.90;99.90
22742;DHT22;11538;48.884;8.696;2024-01-15T13:25:07;1.90;99.90
22742;DHT22;11538;48.884;8.696;2024-01-15T13:27:35;1.90;99.90
22742;DHT22;11538;48.884;8.696;2024-01-15T13:30:03;1.80;99.90
22742;DHT22;11538;48.884;8.696;2024-01-15T13:32:33;1.90;99.90
22742;DHT22;11538;48.884;8.696;2024-01-15T13:35:00;1.90;99.90
22742;DHT22;11538;48.884;8.696;2024-01-15T13:37:27;1.90;99.90
22742;DHT22;11538;48.884;8.696;2024-01-15T13:39:54;1.90;99.90
22742;DHT22;11538;48.884;8.696;2024-01-15T13:42:22;1.90;99.90
22742;DHT22;11538;48.884;8.696;2024-01-15T13:44:50;1.90;99.90
22742;DHT22;11538;48.884;8.696;2024-01-15T13:47:17;1.90;99.90
22742;DHT22;11538;48.884;8.696;2024-01-15T13:49:44;1.90;99.90
22742;DHT22;11538;48.884;8.696;2024-01-15T13:52:11;1.90;99.90
22742;DHT22;11538;48.884;8.696;2024-01-15T13:54:39;1.90;99.90
22742;DHT22;11538;48.884;8.696;2024-01-15T13:57:16;1.90;99.90
22742;DHT22;11538;48.884;8.696;2024-01-15T13:59:45;1.90;99.90
22742;DHT22;11538;48.884;8.696;2024-01-15T14:02:13;1.80;99.90
22742;DHT22;11538;48.884;8.696;2024-01-15T14:04:46;1.80;99.90
22742;DHT22;11538;48.884;8.696;2024-01-15T14:07:14;1.80;99.90
22742;DHT22;11538;48.884;8.696;2024-01-15T14:09:42;1.80;99.90
22742;DHT22;11538;48.884;8.696;2024-01-15T14:12:09;1.80;99.90
22742;DHT22;11538;48.884;8.696;2024-01-15T14:14:36;1.80;99.90
22742;DHT22;11538;48.884;8.696;2024-01-15T14:17:03;1.80;99.90
22742;DHT22;11538;48.884;8.696;2024-01-15T14:19:31;1.80;99.90
22742;DHT22;11538;48.884;8.696;2024-01-15T14:21:58;1.80;99.90
22742;DHT22;11538;48.884;8.696;2024-01-15T14:24:25;1.80;99.90
22742;DHT22;11538;48.884;8.696;2024-01-15T14:26:52;1.90;99.90
22742;DHT22;11538;48.884;8.696;2024-01-15T14:29:18;1.80;99.90
22742;DHT22;11538;48.884;8.696;2024-01-15T14:31:48;1.80;99.90
22742;DHT22;11538;48.884;8.696;2024-01-15T14:34:15;1.80;99.90
22742;DHT22;11538;48.884;8.696;2024-01-15T14:36:44;1.70;99.90
22742;DHT22;11538;48.884;8.696;2024-01-15T14:39:12;1.70;99.90
22742;DHT22;11538;48.884;8.696;2024-01-15T14:41:44;1.70;99.90
22742;DHT22;11538;48.884;8.696;2024-01-15T14:44:26;1.70;99.90
22742;DHT22;11538;48.884;8.696;2024-01-15T14:46:55;1.70;99.90
22742;DHT22;11538;48.884;8.696;2024-01-15T14:49:22;1.70;99.90
22742;DHT22;11538;48.884;8.696;2024-01-15T14:51:50;1.70;99.90
22742;DHT22;11538;48.884;8.696;2024-01-15T14:54:17;1.70;99.90
22742;DHT22;11538;48.884;8.696;2024-01-15T14:56:47;1.70;99.90
22742;DHT22;11538;48.884;8.696;2024-01-15T14:59:14;1.70;99.90
22742;DHT22;11538;48.884;8.696;2024-01-15T15:01:41;1.70;99.90
22742;DHT22;11538;48.884;8.696;2024-01-15T15:04:08;1.70;99.90
22742;DHT22;11538;48.884;8.696;2024-01-15T15:06:37;1.70;99.90
22742;DHT22;11538;48.884;8.696;2024-01-15T15:09:04;1.70;99.90
22742;DHT22;11538;48.884;8.696;2024-01-15T15:11:36;1.60;99.90
22742;DHT22;11538;48.884;8.696;2024-01-15T15:14:03;1.60;99.90
22742;DHT22;11538;48.884;8.696;2024-01-15T15:16:33;1.60;99.90
22742;DHT22;11538;48.884;8.696;2024-01-15T15:19:00;1.60;99.90
22742;DHT22;11538;48.884;8.696;2024-01-15T15:21:27;1.60;99.90
22742;DHT22;11538;48.884;8.696;2024-01-15T15:23:55;1.60;99.90
22742;DHT22;11538;48.884;8.696;2024-01-15T15:26:22;1.60;99.90
22742;DHT22;11538;48.884;8.696;2024-01-15T15:28:49;1.60;99.90
22742;DHT22;11538;48.884;8.696;2024-01-15T15:31:16;1.60;99.90
22742;DHT22;11538;48.884;8.696;2024-01-15T15:33:43;1.60;99.90
22742;DHT22;11538;48.884;8.696;2024-01-15T15:36:11;1.60;99.90
22742;DHT22;11538;48.884;8.696;2024-01-15T15:38:38;1.60;99.90
22742;DHT22;11538;48.884;8.696;2024-01-15T15:41:05;1.60;99.90
22742;DHT22;11538;48.884;8.696;2024-01-15T15:43:31;1.60;99.90
22742;DHT22;11538;48.884;8.696;2024-01-15T15:45:59;1.60;99.90
22742;DHT22;11538;48.884;8.696;2024-01-15T15:48:31;1.60;99.90
22742;DHT22;11538;48.884;8.696;2024-01-15T15:50:58;1.60;99.90
22742;DHT22;11538;48.884;8.696;2024-01-15T15:53:27;1.60;99.90
22742;DHT22;11538;48.884;8.696;2024-01-15T15:55:53;1.60;99.90